sensor_id;sensor_type;location;lat;lon;timestamp;pressure;altitude;pressure_sealevel;temperature;humidity
80139;BME280;69467;59.842;17.604;2023-05-16T00:01:28;100651.13;;;13.27;50.58
80139;BME280;69467;59.842;17.604;2023-05-16T00:03:54;100651.72;;;13.24;50.47
80139;BME280;69467;59.842;17.604;2023-05-16T00:06:20;100649.53;;;13.15;50.53
80139;BME280;69467;59.842;17.604;2023-05-16T00:08:45;100640.75;;;13.08;51.07
80139;BME280;69467;59.842;17.604;2023-05-16T00:11:10;100641.59;;;13.03;51.53
80139;BME280;69467;59.842;17.604;2023-05-16T00:13:36;100640.78;;;13.03;51.80
80139;BME280;69467;59.842;17.604;2023-05-16T00:16:03;100635.03;;;12.99;51.81
80139;BME280;69467;59.842;17.604;2023-05-16T00:18:29;100631.19;;;13.00;52.02
80139;BME280;69467;59.842;17.604;2023-05-16T00:20:54;100618.53;;;12.99;52.04
80139;BME280;69467;59.842;17.604;2023-05-16T00:23:20;100605.88;;;12.98;51.94
80139;BME280;69467;59.842;17.604;2023-05-16T00:25:46;100598.75;;;12.97;52.15
80139;BME280;69467;59.842;17.604;2023-05-16T00:28:12;100601.78;;;12.96;52.25
80139;BME280;69467;59.842;17.604;2023-05-16T00:30:38;100599.06;;;12.91;52.36
80139;BME280;69467;59.842;17.604;2023-05-16T00:33:03;100595.50;;;12.85;52.90
80139;BME280;69467;59.842;17.604;2023-05-16T00:35:29;100594.69;;;12.79;53.17
80139;BME280;69467;59.842;17.604;2023-05-16T00:37:54;100590.59;;;12.71;53.42
80139;BME280;69467;59.842;17.604;2023-05-16T00:40:20;100583.47;;;12.65;53.62
80139;BME280;69467;59.842;17.604;2023-05-16T00:42:46;100583.75;;;12.64;53.40
80139;BME280;69467;59.842;17.604;2023-05-16T00:45:11;100581.84;;;12.64;53.19
80139;BME280;69467;59.842;17.604;2023-05-16T00:47:36;100573.59;;;12.64;53.33
80139;BME280;69467;59.842;17.604;2023-05-16T00:50:02;100566.44;;;12.63;53.63
80139;BME280;69467;59.842;17.604;2023-05-16T00:52:29;100566.44;;;12.63;53.78
80139;BME280;69467;59.842;17.604;2023-05-16T00:54:56;100553.53;;;12.59;53.90
80139;BME280;69467;59.842;17.604;2023-05-16T00:57:21;100552.47;;;12.54;53.86
80139;BME280;69467;59.842;17.604;2023-05-16T00:59:48;100549.47;;;12.51;53.96
80139;BME280;69467;59.842;17.604;2023-05-16T01:02:14;100555.78;;;12.46;54.49
80139;BME280;69467;59.842;17.604;2023-05-16T01:04:40;100547.81;;;12.39;54.37
80139;BME280;69467;59.842;17.604;2023-05-16T01:07:07;100540.16;;;12.36;54.83
80139;BME280;69467;59.842;17.604;2023-05-16T01:09:32;100550.59;;;12.34;54.71
80139;BME280;69467;59.842;17.604;2023-05-16T01:12:04;100548.94;;;12.33;54.39
80139;BME280;69467;59.842;17.604;2023-05-16T01:23:32;100534.69;;;12.16;54.86
80139;BME280;69467;59.842;17.604;2023-05-16T01:26:17;100530.31;;;12.10;55.13
80139;BME280;69467;59.842;17.604;2023-05-16T01:28:45;100524.56;;;12.06;55.62
80139;BME280;69467;59.842;17.604;2023-05-16T01:31:11;100525.41;;;12.01;56.21
80139;BME280;69467;59.842;17.604;2023-05-16T01:33:36;100524.28;;;11.97;55.71
80139;BME280;69467;59.842;17.604;2023-05-16T01:36:13;100529.47;;;11.93;56.21
80139;BME280;69467;59.842;17.604;2023-05-16T01:41:52;100522.34;;;11.82;56.41
80139;BME280;69467;59.842;17.604;2023-05-16T01:44:27;100516.06;;;11.82;56.63
80139;BME280;69467;59.842;17.604;2023-05-16T01:46:58;100510.81;;;11.80;56.72
80139;BME280;69467;59.842;17.604;2023-05-16T01:50:05;100504.53;;;11.80;56.36
80139;BME280;69467;59.842;17.604;2023-05-16T01:52:57;100507.00;;;11.76;57.29
80139;BME280;69467;59.842;17.604;2023-05-16T01:56:14;100508.94;;;11.75;56.54
80139;BME280;69467;59.842;17.604;2023-05-16T01:58:16;100498.78;;;11.76;56.63
80139;BME280;69467;59.842;17.604;2023-05-16T02:00:43;100497.41;;;11.73;57.07
80139;BME280;69467;59.842;17.604;2023-05-16T02:03:09;100495.19;;;11.70;56.99
80139;BME280;69467;59.842;17.604;2023-05-16T02:05:34;100498.22;;;11.69;56.46
80139;BME280;69467;59.842;17.604;2023-05-16T02:08:00;100496.84;;;11.66;57.15
80139;BME280;69467;59.842;17.604;2023-05-16T02:10:26;100490.28;;;11.62;57.75
80139;BME280;69467;59.842;17.604;2023-05-16T02:12:52;100487.53;;;11.62;57.47
80139;BME280;69467;59.842;17.604;2023-05-16T02:15:18;100484.25;;;11.60;57.02
80139;BME280;69467;59.842;17.604;2023-05-16T02:17:43;100482.88;;;11.57;57.87
80139;BME280;69467;59.842;17.604;2023-05-16T02:20:09;100484.25;;;11.55;58.06
80139;BME280;69467;59.842;17.604;2023-05-16T02:22:35;100481.75;;;11.48;58.12
80139;BME280;69467;59.842;17.604;2023-05-16T02:25:02;100478.78;;;11.44;58.59
80139;BME280;69467;59.842;17.604;2023-05-16T02:27:28;100476.56;;;11.41;58.24
80139;BME280;69467;59.842;17.604;2023-05-16T02:29:54;100468.34;;;11.36;58.83
80139;BME280;69467;59.842;17.604;2023-05-16T02:32:19;100472.72;;;11.37;58.41
80139;BME280;69467;59.842;17.604;2023-05-16T02:34:45;100470.50;;;11.39;59.07
80139;BME280;69467;59.842;17.604;2023-05-16T02:37:10;100466.69;;;11.40;58.31
80139;BME280;69467;59.842;17.604;2023-05-16T02:39:36;100467.78;;;11.39;58.28
80139;BME280;69467;59.842;17.604;2023-05-16T02:42:02;100472.72;;;11.37;58.63
80139;BME280;69467;59.842;17.604;2023-05-16T02:44:28;100467.50;;;11.36;58.28
80139;BME280;69467;59.842;17.604;2023-05-16T02:46:53;100469.72;;;11.34;58.85
80139;BME280;69467;59.842;17.604;2023-05-16T02:49:19;100460.66;;;11.33;58.66
80139;BME280;69467;59.842;17.604;2023-05-16T02:51:45;100461.75;;;11.32;59.31
80139;BME280;69467;59.842;17.604;2023-05-16T02:54:10;100459.03;;;11.32;58.77
80139;BME280;69467;59.842;17.604;2023-05-16T02:56:36;100450.81;;;11.32;58.71
80139;BME280;69467;59.842;17.604;2023-05-16T02:59:01;100445.31;;;11.32;58.61
80139;BME280;69467;59.842;17.604;2023-05-16T03:01:28;100445.03;;;11.34;59.23
80139;BME280;69467;59.842;17.604;2023-05-16T03:03:54;100435.16;;;11.33;59.09
80139;BME280;69467;59.842;17.604;2023-05-16T03:06:19;100436.81;;;11.28;59.01
80139;BME280;69467;59.842;17.604;2023-05-16T03:08:45;100433.78;;;11.25;59.61
80139;BME280;69467;59.842;17.604;2023-05-16T03:11:11;100426.66;;;11.24;59.40
80139;BME280;69467;59.842;17.604;2023-05-16T03:13:36;100418.72;;;11.27;59.62
80139;BME280;69467;59.842;17.604;2023-05-16T03:16:02;100414.31;;;11.26;59.08
80139;BME280;69467;59.842;17.604;2023-05-16T03:18:27;100415.13;;;11.27;59.77
80139;BME280;69467;59.842;17.604;2023-05-16T03:20:53;100416.78;;;11.28;59.48
80139;BME280;69467;59.842;17.604;2023-05-16T03:23:19;100423.09;;;11.28;60.04
80139;BME280;69467;59.842;17.604;2023-05-16T03:25:45;100408.84;;;11.26;60.66
80139;BME280;69467;59.842;17.604;2023-05-16T03:28:10;100403.91;;;11.28;60.02
80139;BME280;69467;59.842;17.604;2023-05-16T03:30:36;100398.72;;;11.32;60.29
80139;BME280;69467;59.842;17.604;2023-05-16T03:33:02;100398.72;;;11.32;59.87
80139;BME280;69467;59.842;17.604;2023-05-16T03:35:31;100398.44;;;11.34;60.45
80139;BME280;69467;59.842;17.604;2023-05-16T03:37:57;100386.88;;;11.37;60.13
80139;BME280;69467;59.842;17.604;2023-05-16T03:40:23;100375.94;;;11.37;60.90
80139;BME280;69467;59.842;17.604;2023-05-16T03:42:48;100384.72;;;11.39;60.14
80139;BME280;69467;59.842;17.604;2023-05-16T03:45:13;100373.75;;;11.39;60.52
80139;BME280;69467;59.842;17.604;2023-05-16T03:47:39;100387.72;;;11.37;60.60
80139;BME280;69467;59.842;17.604;2023-05-16T03:50:05;100387.44;;;11.39;61.40
80139;BME280;69467;59.842;17.604;2023-05-16T03:52:30;100388.00;;;11.41;60.74
80139;BME280;69467;59.842;17.604;2023-05-16T03:54:56;100379.50;;;11.42;60.86
80139;BME280;69467;59.842;17.604;2023-05-16T03:57:21;100376.75;;;11.48;60.76
80139;BME280;69467;59.842;17.604;2023-05-16T03:59:47;100368.50;;;11.53;60.71
80139;BME280;69467;59.842;17.604;2023-05-16T04:02:12;100361.63;;;11.55;60.62
80139;BME280;69467;59.842;17.604;2023-05-16T04:04:38;100362.19;;;11.57;60.58
80139;BME280;69467;59.842;17.604;2023-05-16T04:07:03;100361.91;;;11.59;59.87
80139;BME280;69467;59.842;17.604;2023-05-16T04:09:29;100352.03;;;11.58;59.82
80139;BME280;69467;59.842;17.604;2023-05-16T04:11:55;100349.84;;;11.60;59.99
80139;BME280;69467;59.842;17.604;2023-05-16T04:14:21;100342.19;;;11.57;59.92
80139;BME280;69467;59.842;17.604;2023-05-16T04:16:47;100330.09;;;11.58;60.07
80139;BME280;69467;59.842;17.604;2023-05-16T04:19:12;100323.50;;;11.59;60.44
80139;BME280;69467;59.842;17.604;2023-05-16T04:21:37;100327.59;;;11.62;59.93
80139;BME280;69467;59.842;17.604;2023-05-16T04:24:03;100323.25;;;11.60;60.63
80139;BME280;69467;59.842;17.604;2023-05-16T04:26:29;100320.22;;;11.62;60.29
80139;BME280;69467;59.842;17.604;2023-05-16T04:28:54;100304.56;;;11.63;60.37
80139;BME280;69467;59.842;17.604;2023-05-16T04:31:21;100314.16;;;11.65;60.21
80139;BME280;69467;59.842;17.604;2023-05-16T04:33:47;100313.34;;;11.65;60.87
80139;BME280;69467;59.842;17.604;2023-05-16T04:36:13;100306.47;;;11.67;60.13
80139;BME280;69467;59.842;17.604;2023-05-16T04:38:38;100296.06;;;11.69;60.33
80139;BME280;69467;59.842;17.604;2023-05-16T04:41:04;100304.00;;;11.71;60.28
80139;BME280;69467;59.842;17.604;2023-05-16T04:43:29;100300.97;;;11.72;60.01
80139;BME280;69467;59.842;17.604;2023-05-16T04:45:55;100308.09;;;11.73;60.84
80139;BME280;69467;59.842;17.604;2023-05-16T04:48:23;100291.06;;;11.76;60.69
80139;BME280;69467;59.842;17.604;2023-05-16T04:50:48;100297.41;;;11.77;60.39
80139;BME280;69467;59.842;17.604;2023-05-16T04:53:13;100298.75;;;11.80;60.67
80139;BME280;69467;59.842;17.604;2023-05-16T04:55:39;100301.75;;;11.83;60.39
80139;BME280;69467;59.842;17.604;2023-05-16T04:58:05;100303.13;;;11.86;60.83
80139;BME280;69467;59.842;17.604;2023-05-16T05:00:30;100316.28;;;11.89;60.67
80139;BME280;69467;59.842;17.604;2023-05-16T05:02:56;100347.59;;;11.77;62.25
80139;BME280;69467;59.842;17.604;2023-05-16T05:05:21;100348.72;;;11.66;61.60
80139;BME280;69467;59.842;17.604;2023-05-16T05:07:47;100361.31;;;11.72;60.97
80139;BME280;69467;59.842;17.604;2023-05-16T05:10:12;100341.84;;;11.79;60.67
80139;BME280;69467;59.842;17.604;2023-05-16T05:12:38;100333.59;;;11.84;60.40
80139;BME280;69467;59.842;17.604;2023-05-16T05:15:04;100326.69;;;11.92;59.88
80139;BME280;69467;59.842;17.604;2023-05-16T05:17:30;100329.97;;;11.94;60.30
80139;BME280;69467;59.842;17.604;2023-05-16T05:19:56;100331.38;;;11.97;59.54
80139;BME280;69467;59.842;17.604;2023-05-16T05:22:21;100327.78;;;11.96;60.12
80139;BME280;69467;59.842;17.604;2023-05-16T05:24:47;100326.44;;;11.88;60.10
80139;BME280;69467;59.842;17.604;2023-05-16T05:27:12;100319.59;;;11.86;60.36
80139;BME280;69467;59.842;17.604;2023-05-16T05:29:38;100320.66;;;11.90;60.20
80139;BME280;69467;59.842;17.604;2023-05-16T05:32:04;100317.66;;;11.91;61.08
80139;BME280;69467;59.842;17.604;2023-05-16T05:34:29;100319.56;;;11.91;60.62
80139;BME280;69467;59.842;17.604;2023-05-16T05:36:55;100309.69;;;12.00;60.37
80139;BME280;69467;59.842;17.604;2023-05-16T05:39:21;100311.28;;;12.06;60.05
80139;BME280;69467;59.842;17.604;2023-05-16T05:41:46;100311.25;;;12.12;59.99
80139;BME280;69467;59.842;17.604;2023-05-16T05:44:11;100314.53;;;12.19;60.58
80139;BME280;69467;59.842;17.604;2023-05-16T05:46:37;100305.97;;;12.26;59.95
80139;BME280;69467;59.842;17.604;2023-05-16T05:49:03;100304.31;;;12.30;59.85
80139;BME280;69467;59.842;17.604;2023-05-16T05:51:28;100308.13;;;12.34;60.24
80139;BME280;69467;59.842;17.604;2023-05-16T05:53:54;100304.53;;;12.38;59.85
80139;BME280;69467;59.842;17.604;2023-05-16T05:56:20;100307.22;;;12.44;60.32
80139;BME280;69467;59.842;17.604;2023-05-16T05:58:46;100304.44;;;12.49;59.73
80139;BME280;69467;59.842;17.604;2023-05-16T06:01:11;100304.19;;;12.45;60.54
80139;BME280;69467;59.842;17.604;2023-05-16T06:03:37;100296.06;;;12.69;64.03
80139;BME280;69467;59.842;17.604;2023-05-16T06:06:03;100294.84;;;13.15;60.52
80139;BME280;69467;59.842;17.604;2023-05-16T06:08:28;100289.47;;;13.29;59.38
80139;BME280;69467;59.842;17.604;2023-05-16T06:10:54;100284.63;;;13.21;59.06
80139;BME280;69467;59.842;17.604;2023-05-16T06:13:19;100276.94;;;13.18;58.79
80139;BME280;69467;59.842;17.604;2023-05-16T06:15:52;100285.25;;;13.13;59.52
80139;BME280;69467;59.842;17.604;2023-05-16T06:18:19;100274.81;;;13.10;59.51
80139;BME280;69467;59.842;17.604;2023-05-16T06:20:44;100269.91;;;13.07;59.54
80139;BME280;69467;59.842;17.604;2023-05-16T06:23:10;100280.34;;;13.04;59.97
80139;BME280;69467;59.842;17.604;2023-05-16T06:25:36;100270.53;;;12.98;60.40
80139;BME280;69467;59.842;17.604;2023-05-16T06:28:01;100269.47;;;12.94;61.52
80139;BME280;69467;59.842;17.604;2023-05-16T06:30:27;100264.28;;;12.93;61.89
80139;BME280;69467;59.842;17.604;2023-05-16T06:32:52;100270.28;;;12.95;63.22
80139;BME280;69467;59.842;17.604;2023-05-16T06:35:17;100269.47;;;12.94;63.00
80139;BME280;69467;59.842;17.604;2023-05-16T06:37:43;100271.13;;;12.95;63.36
80139;BME280;69467;59.842;17.604;2023-05-16T06:40:09;100256.03;;;12.93;63.41
80139;BME280;69467;59.842;17.604;2023-05-16T06:42:34;100269.22;;;12.91;64.07
80139;BME280;69467;59.842;17.604;2023-05-16T06:45:00;100270.88;;;12.92;64.58
80139;BME280;69467;59.842;17.604;2023-05-16T06:47:25;100268.13;;;12.92;65.26
80139;BME280;69467;59.842;17.604;2023-05-16T06:49:50;100275.28;;;12.87;65.93
80139;BME280;69467;59.842;17.604;2023-05-16T06:52:16;100268.97;;;12.87;66.34
80139;BME280;69467;59.842;17.604;2023-05-16T06:54:41;100283.53;;;12.87;66.65
80139;BME280;69467;59.842;17.604;2023-05-16T06:57:07;100282.72;;;12.87;67.05
80139;BME280;69467;59.842;17.604;2023-05-16T06:59:35;100287.13;;;12.88;67.73
80139;BME280;69467;59.842;17.604;2023-05-16T07:02:01;100283.53;;;12.87;68.29
80139;BME280;69467;59.842;17.604;2023-05-16T07:04:27;100285.22;;;12.83;68.87
80139;BME280;69467;59.842;17.604;2023-05-16T07:06:53;100294.91;;;12.76;69.83
80139;BME280;69467;59.842;17.604;2023-05-16T07:09:20;100293.84;;;12.71;70.27
80139;BME280;69467;59.842;17.604;2023-05-16T07:11:45;100286.72;;;12.65;71.41
80139;BME280;69467;59.842;17.604;2023-05-16T07:14:11;100286.22;;;12.63;70.32
80139;BME280;69467;59.842;17.604;2023-05-16T07:16:36;100286.81;;;12.55;71.04
80139;BME280;69467;59.842;17.604;2023-05-16T07:19:02;100283.03;;;12.51;71.53
80139;BME280;69467;59.842;17.604;2023-05-16T07:21:27;100285.22;;;12.49;71.83
80139;BME280;69467;59.842;17.604;2023-05-16T07:23:53;100274.78;;;12.51;70.76
80139;BME280;69467;59.842;17.604;2023-05-16T07:26:19;100267.63;;;12.50;71.93
80139;BME280;69467;59.842;17.604;2023-05-16T07:28:48;100273.44;;;12.48;71.61
80139;BME280;69467;59.842;17.604;2023-05-16T07:31:14;100264.06;;;12.49;72.60
80139;BME280;69467;59.842;17.604;2023-05-16T07:33:40;100268.16;;;12.52;72.85
80139;BME280;69467;59.842;17.604;2023-05-16T07:36:06;100265.38;;;12.57;73.16
80139;BME280;69467;59.842;17.604;2023-05-16T07:38:32;100260.75;;;12.52;74.63
80139;BME280;69467;59.842;17.604;2023-05-16T07:40:57;100265.94;;;12.54;73.67
80139;BME280;69467;59.842;17.604;2023-05-16T07:43:23;100268.69;;;12.54;73.31
80139;BME280;69467;59.842;17.604;2023-05-16T07:45:48;100259.09;;;12.51;75.71
80139;BME280;69467;59.842;17.604;2023-05-16T07:48:14;100249.97;;;12.61;76.12
80139;BME280;69467;59.842;17.604;2023-05-16T07:50:39;100240.88;;;12.66;76.08
80139;BME280;69467;59.842;17.604;2023-05-16T07:53:05;100248.25;;;12.70;76.39
80139;BME280;69467;59.842;17.604;2023-05-16T07:55:30;100236.66;;;12.73;76.71
80139;BME280;69467;59.842;17.604;2023-05-16T07:57:55;100236.31;;;12.80;77.01
80139;BME280;69467;59.842;17.604;2023-05-16T08:00:22;100223.38;;;12.86;77.54
80139;BME280;69467;59.842;17.604;2023-05-16T08:02:47;100221.16;;;12.88;76.13
80139;BME280;69467;59.842;17.604;2023-05-16T08:05:12;100225.50;;;12.94;76.92
80139;BME280;69467;59.842;17.604;2023-05-16T08:07:38;100217.50;;;12.98;77.00
80139;BME280;69467;59.842;17.604;2023-05-16T08:10:03;100206.19;;;12.99;77.43
80139;BME280;69467;59.842;17.604;2023-05-16T08:12:29;100221.59;;;13.00;77.50
80139;BME280;69467;59.842;17.604;2023-05-16T08:14:55;100207.00;;;13.00;78.08
80139;BME280;69467;59.842;17.604;2023-05-16T08:17:21;100218.84;;;13.00;77.60
80139;BME280;69467;59.842;17.604;2023-05-16T08:19:46;100206.19;;;12.99;77.76
80139;BME280;69467;59.842;17.604;2023-05-16T08:22:12;100217.75;;;12.96;78.01
80139;BME280;69467;59.842;17.604;2023-05-16T08:24:37;100220.56;;;12.91;77.93
80139;BME280;69467;59.842;17.604;2023-05-16T08:27:03;100208.47;;;12.92;77.79
80139;BME280;69467;59.842;17.604;2023-05-16T08:29:28;100213.41;;;12.90;78.68
80139;BME280;69467;59.842;17.604;2023-05-16T08:31:54;100213.97;;;12.92;78.66
80139;BME280;69467;59.842;17.604;2023-05-16T08:34:19;100203.22;;;12.96;79.50
80139;BME280;69467;59.842;17.604;2023-05-16T08:36:45;100199.06;;;12.98;79.37
80139;BME280;69467;59.842;17.604;2023-05-16T08:39:10;100199.28;;;13.02;79.92
80139;BME280;69467;59.842;17.604;2023-05-16T08:41:36;100191.34;;;13.00;79.69
80139;BME280;69467;59.842;17.604;2023-05-16T08:44:02;100194.59;;;13.02;79.61
80139;BME280;69467;59.842;17.604;2023-05-16T08:46:28;100195.69;;;13.07;79.78
80139;BME280;69467;59.842;17.604;2023-05-16T08:48:57;100192.06;;;13.11;80.63
80139;BME280;69467;59.842;17.604;2023-05-16T08:51:24;100188.72;;;13.14;80.94
80139;BME280;69467;59.842;17.604;2023-05-16T08:53:59;100188.88;;;13.23;81.28
80139;BME280;69467;59.842;17.604;2023-05-16T08:56:27;100186.66;;;13.25;80.76
80139;BME280;69467;59.842;17.604;2023-05-16T08:58:53;100184.16;;;13.29;80.96
80139;BME280;69467;59.842;17.604;2023-05-16T09:01:23;100179.69;;;13.33;81.10
80139;BME280;69467;59.842;17.604;2023-05-16T09:03:51;100177.97;;;13.37;81.48
80139;BME280;69467;59.842;17.604;2023-05-16T09:06:17;100175.00;;;13.39;81.26
80139;BME280;69467;59.842;17.604;2023-05-16T09:08:43;100165.81;;;13.43;81.44
80139;BME280;69467;59.842;17.604;2023-05-16T09:11:08;100170.75;;;13.46;82.17
80139;BME280;69467;59.842;17.604;2023-05-16T09:13:34;100170.97;;;13.50;82.00
80139;BME280;69467;59.842;17.604;2023-05-16T09:16:13;100167.06;;;13.56;82.05
80139;BME280;69467;59.842;17.604;2023-05-16T09:18:39;100165.63;;;13.59;81.54
80139;BME280;69467;59.842;17.604;2023-05-16T09:21:08;100162.50;;;13.65;81.96
80139;BME280;69467;59.842;17.604;2023-05-16T09:23:34;100154.25;;;13.65;81.60
80139;BME280;69467;59.842;17.604;2023-05-16T09:26:01;100157.53;;;13.67;82.35
80139;BME280;69467;59.842;17.604;2023-05-16T09:28:27;100153.69;;;13.68;81.50
80139;BME280;69467;59.842;17.604;2023-05-16T09:30:53;100152.78;;;13.73;81.02
80139;BME280;69467;59.842;17.604;2023-05-16T09:33:22;100152.72;;;13.78;81.08
80139;BME280;69467;59.842;17.604;2023-05-16T09:35:59;100141.69;;;13.78;78.66
80139;BME280;69467;59.842;17.604;2023-05-16T09:38:26;100142.44;;;13.84;80.75
80139;BME280;69467;59.842;17.604;2023-05-16T09:40:55;100142.88;;;13.91;80.62
80139;BME280;69467;59.842;17.604;2023-05-16T09:43:25;100137.22;;;14.01;79.79
80139;BME280;69467;59.842;17.604;2023-05-16T09:45:51;100135.41;;;14.11;78.78
80139;BME280;69467;59.842;17.604;2023-05-16T09:48:17;100134.44;;;14.21;78.76
80139;BME280;69467;59.842;17.604;2023-05-16T09:50:52;100133.00;;;14.23;78.34
80139;BME280;69467;59.842;17.604;2023-05-16T09:53:26;100125.28;;;14.25;78.13
80139;BME280;69467;59.842;17.604;2023-05-16T09:58:31;100122.44;;;14.44;78.91
80139;BME280;69467;59.842;17.604;2023-05-16T10:00:58;100118.19;;;14.52;77.01
80139;BME280;69467;59.842;17.604;2023-05-16T10:03:24;100119.13;;;14.61;77.79
80139;BME280;69467;59.842;17.604;2023-05-16T10:05:50;100121.28;;;14.64;77.82
80139;BME280;69467;59.842;17.604;2023-05-16T10:08:21;100112.41;;;14.68;78.38
80139;BME280;69467;59.842;17.604;2023-05-16T10:10:54;100111.28;;;14.69;79.03
80139;BME280;69467;59.842;17.604;2023-05-16T10:13:22;100111.69;;;14.62;79.24
80139;BME280;69467;59.842;17.604;2023-05-16T10:15:49;100108.72;;;14.58;79.63
80139;BME280;69467;59.842;17.604;2023-05-16T10:18:17;100110.72;;;14.53;79.79
80139;BME280;69467;59.842;17.604;2023-05-16T10:20:45;100107.97;;;14.53;79.83
80139;BME280;69467;59.842;17.604;2023-05-16T10:23:16;100106.75;;;14.45;79.97
80139;BME280;69467;59.842;17.604;2023-05-16T10:25:43;100101.28;;;14.26;80.59
80139;BME280;69467;59.842;17.604;2023-05-16T10:28:10;100102.44;;;14.25;80.40
80139;BME280;69467;59.842;17.604;2023-05-16T10:30:39;100101.50;;;14.29;80.09
80139;BME280;69467;59.842;17.604;2023-05-16T10:33:05;100094.06;;;14.30;79.56
80139;BME280;69467;59.842;17.604;2023-05-16T10:35:33;100100.38;;;14.30;79.68
80139;BME280;69467;59.842;17.604;2023-05-16T10:37:59;100096.00;;;14.29;80.95
80139;BME280;69467;59.842;17.604;2023-05-16T10:40:25;100097.94;;;14.29;80.54
80139;BME280;69467;59.842;17.604;2023-05-16T10:42:59;100101.50;;;14.29;80.78
80139;BME280;69467;59.842;17.604;2023-05-16T10:45:25;100092.22;;;14.25;80.67
80139;BME280;69467;59.842;17.604;2023-05-16T10:47:57;100090.06;;;14.22;81.80
80139;BME280;69467;59.842;17.604;2023-05-16T10:50:44;100084.84;;;14.21;80.46
80139;BME280;69467;59.842;17.604;2023-05-16T10:53:28;100085.75;;;14.16;80.87
80139;BME280;69467;59.842;17.604;2023-05-16T10:58:43;100082.19;;;14.15;82.14
80139;BME280;69467;59.842;17.604;2023-05-16T11:06:24;100080.25;;;14.16;81.90
80139;BME280;69467;59.842;17.604;2023-05-16T11:14:04;100068.13;;;14.17;83.15
80139;BME280;69467;59.842;17.604;2023-05-16T11:16:30;100065.66;;;14.15;82.14
80139;BME280;69467;59.842;17.604;2023-05-16T11:19:06;100065.16;;;14.13;81.78
80139;BME280;69467;59.842;17.604;2023-05-16T11:24:54;100060.16;;;14.15;82.36
80139;BME280;69467;59.842;17.604;2023-05-16T11:27:25;100060.16;;;14.15;82.17
80139;BME280;69467;59.842;17.604;2023-05-16T11:29:51;100056.59;;;14.15;82.85
80139;BME280;69467;59.842;17.604;2023-05-16T11:32:21;100057.94;;;14.17;83.36
80139;BME280;69467;59.842;17.604;2023-05-16T11:34:48;100055.47;;;14.16;83.06
80139;BME280;69467;59.842;17.604;2023-05-16T11:37:15;100060.97;;;14.16;82.81
80139;BME280;69467;59.842;17.604;2023-05-16T11:39:41;100054.44;;;14.12;82.10
80139;BME280;69467;59.842;17.604;2023-05-16T11:42:07;100056.38;;;14.11;81.37
80139;BME280;69467;59.842;17.604;2023-05-16T11:44:33;100056.19;;;14.08;82.02
80139;BME280;69467;59.842;17.604;2023-05-16T11:46:59;100054.00;;;14.05;82.63
80139;BME280;69467;59.842;17.604;2023-05-16T11:49:26;100055.75;;;14.00;82.66
80139;BME280;69467;59.842;17.604;2023-05-16T11:51:53;100042.88;;;13.96;83.62
80139;BME280;69467;59.842;17.604;2023-05-16T11:54:19;100050.81;;;13.97;84.16
80139;BME280;69467;59.842;17.604;2023-05-16T11:56:45;100044.50;;;13.97;84.25
80139;BME280;69467;59.842;17.604;2023-05-16T11:59:10;100050.03;;;13.97;84.13
80139;BME280;69467;59.842;17.604;2023-05-16T12:01:38;100045.63;;;13.96;84.69
80139;BME280;69467;59.842;17.604;2023-05-16T12:04:22;100042.88;;;13.96;84.83
80139;BME280;69467;59.842;17.604;2023-05-16T12:06:57;100046.47;;;13.96;84.70
80139;BME280;69467;59.842;17.604;2023-05-16T12:09:24;100042.16;;;13.90;85.65
80139;BME280;69467;59.842;17.604;2023-05-16T12:11:51;100044.09;;;13.90;84.85
80139;BME280;69467;59.842;17.604;2023-05-16T12:14:17;100040.00;;;13.87;84.85
80139;BME280;69467;59.842;17.604;2023-05-16T12:16:43;100034.19;;;13.89;84.40
80139;BME280;69467;59.842;17.604;2023-05-16T12:19:10;100035.03;;;13.89;84.52
80139;BME280;69467;59.842;17.604;2023-05-16T12:21:37;100041.41;;;13.84;85.00
80139;BME280;69467;59.842;17.604;2023-05-16T12:24:02;100039.25;;;13.81;84.81
80139;BME280;69467;59.842;17.604;2023-05-16T12:26:31;100041.50;;;13.79;85.21
80139;BME280;69467;59.842;17.604;2023-05-16T12:29:01;100039.66;;;13.75;85.14
80139;BME280;69467;59.842;17.604;2023-05-16T12:31:29;100034.94;;;13.75;85.31
80139;BME280;69467;59.842;17.604;2023-05-16T12:33:56;100035.78;;;13.76;85.85
80139;BME280;69467;59.842;17.604;2023-05-16T12:36:21;100043.50;;;13.74;85.87
80139;BME280;69467;59.842;17.604;2023-05-16T12:38:48;100047.38;;;13.73;84.97
80139;BME280;69467;59.842;17.604;2023-05-16T12:41:21;100036.38;;;13.73;84.97
80139;BME280;69467;59.842;17.604;2023-05-16T12:43:47;100043.28;;;13.70;85.61
80139;BME280;69467;59.842;17.604;2023-05-16T12:46:13;100037.00;;;13.69;85.01
80139;BME280;69467;59.842;17.604;2023-05-16T12:48:39;100037.47;;;13.72;85.11
80139;BME280;69467;59.842;17.604;2023-05-16T12:51:13;100031.97;;;13.72;86.16
80139;BME280;69467;59.842;17.604;2023-05-16T12:53:47;100036.91;;;13.75;85.62
80139;BME280;69467;59.842;17.604;2023-05-16T12:56:13;100030.78;;;13.78;85.67
80139;BME280;69467;59.842;17.604;2023-05-16T12:58:40;100032.41;;;13.79;86.53
80139;BME280;69467;59.842;17.604;2023-05-16T13:01:06;100023.34;;;13.78;86.63
80139;BME280;69467;59.842;17.604;2023-05-16T13:03:32;100027.44;;;13.81;86.29
80139;BME280;69467;59.842;17.604;2023-05-16T13:05:58;100018.66;;;13.79;86.88
80139;BME280;69467;59.842;17.604;2023-05-16T13:08:28;100018.66;;;13.79;87.23
80139;BME280;69467;59.842;17.604;2023-05-16T13:10:54;100023.94;;;13.75;86.96